Date,TemperatureHighF,TemperatureAvgF,TemperatureLowF,DewpointHighF,DewpointAvgF,DewpointLowF,HumidityHigh,HumidityAvg,HumidityLow,PressureMaxIn,PressureMinIn,WindSpeedMaxMPH,WindSpeedAvgMPH,GustSpeedMaxMPH,PrecipitationSumIn
2013-3-18,32,30,29,-2,-2,-3,25,24,22,30.24,30.21,1,1,0,0.00
2013-3-22,32,32,31,15,14,13,49,48,46,29.56,29.56,1,1,0,0.00
2013-4-12,32,28,26,28,25,21,97,89,65,30.06,29.79,3,2,0,0.00
2013-4-13,47,36,29,33,31,29,100,84,51,29.81,29.72,1,0,0,0.00
2013-4-14,44,35,30,35,32,29,100,90,63,30.10,29.82,1,0,0,0.00
2013-4-15,55,39,24,33,28,24,100,72,33,30.28,30.12,1,0,0,0.00
2013-4-16,57,45,33,48,36,28,91,70,55,30.29,30.04,2,1,0,0.00
2013-4-17,55,44,32,37,30,25,90,62,34,30.28,30.05,2,1,0,0.00
2013-4-18,55,41,27,39,27,21,97,62,37,30.32,30.07,3,1,0,0.00
2013-4-19,68,59,49,56,50,32,95,74,52,30.05,29.61,3,2,0,0.00
2013-4-20,48,43,37,44,34,26,100,75,44,29.84,29.64,2,1,0,0.00
2013-4-21,44,34,27,20,14,11,75,47,27,30.55,30.22,2,2,0,0.00
2013-4-22,49,38,23,27,17,10,83,47,25,30.63,30.49,3,1,0,0.00
2013-4-23,37,33,25,33,28,24,99,82,71,30.47,30.26,2,1,0,0.00
2013-4-24,72,70,66,41,36,32,40,30,23,29.84,29.74,2,2,0,0.00
2013-4-25,54,48,41,31,27,20,67,46,29,30.11,29.89,2,2,0,0.00
2013-4-26,52,41,26,35,26,21,91,60,32,30.35,30.22,2,1,0,0.00
2013-4-27,61,53,37,33,15,-100,85,43,23,30.34,30.23,2,1,0,0.00
2013-4-28,68,51,29,38,31,28,99,56,23,30.26,30.13,2,1,0,0.00
2013-4-29,67,55,38,37,35,33,88,52,28,30.18,30.10,2,1,0,0.00
2013-4-30,71,63,48,37,33,29,66,34,21,30.28,30.21,2,1,0,0.00
2013-5-1,74,58,35,40,28,21,89,43,14,30.39,30.33,2,1,0,0.00
2013-5-2,79,58,37,44,34,26,95,50,18,30.42,30.29,2,1,0,0.00
2013-5-3,66,50,32,41,34,25,96,59,32,30.43,30.31,2,1,0,0.00
2013-5-4,72,57,36,46,36,30,100,54,21,30.29,30.18,2,1,0,0.00
2013-5-5,73,56,31,38,31,27,96,46,18,30.24,30.13,2,1,0,0.00
2013-5-6,75,56,33,42,29,13,100,53,10,30.18,30.07,2,1,0,0.00
2013-5-7,82,59,38,47,38,28,99,57,14,30.11,30.03,2,0,0,0.00
2013-5-8,73,60,46,59,52,45,100,78,40,30.18,30.05,2,1,0,0.00
2013-5-9,67,60,55,57,55,52,100,84,62,30.02,29.87,2,1,0,0.00
2013-5-10,72,60,47,57,49,-100,100,75,48,29.93,29.88,1,0,0,0.00
2013-5-11,63,57,56,61,54,-100,100,98,91,29.79,29.65,1,0,0,0.00
2013-5-12,61,53,41,56,47,29,100,83,43,29.71,29.57,1,0,0,0.00
2013-5-13,46,41,37,30,26,23,72,55,46,29.90,29.73,1,1,0,0.00
2013-5-14,50,42,30,33,26,21,100,62,32,30.01,29.95,2,1,0,0.00
2013-5-15,63,44,26,48,32,25,100,73,24,29.99,29.65,2,0,0,0.00
2013-5-16,71,40,48,48,-9,-100,100,50,19,29.79,29.60,2,1,0,0.00
2013-5-17,60,50,44,38,14,-100,75,53,32,30.14,29.87,2,1,0,0.00
2013-5-18,66,49,33,44,36,27,100,70,23,30.25,30.16,1,0,0,0.00
2013-5-19,65,53,40,54,47,40,100,83,53,30.27,30.16,1,0,0,0.00
2013-5-20,64,57,51,61,56,51,100,96,85,30.12,29.98,1,0,0,0.00
2013-5-21,69,58,52,63,56,52,100,97,78,29.98,29.88,1,0,0,0.00
2013-5-22,64,54,47,59,54,47,100,98,85,29.90,29.86,0,0,0,0.00
2013-5-23,68,59,50,67,58,50,100,99,92,29.86,29.79,0,0,0,0.00
2013-5-24,61,56,48,61,56,48,100,99,95,29.80,29.65,1,0,0,0.00
2013-5-25,41,40,39,41,40,39,100,100,100,29.79,29.75,1,1,0,0.00
2013-5-26,45,39,32,41,36,32,100,92,76,29.98,29.70,1,0,0,0.00
2013-5-27,61,51,32,42,36,30,100,63,31,30.12,30.05,2,1,0,0.00
2013-5-28,70,48,33,43,36,30,100,72,28,30.20,30.14,1,0,0,0.00
2013-5-29,55,52,47,55,52,47,100,100,100,30.08,29.99,0,0,0,0.00
2013-5-30,76,62,53,64,58,53,100,90,54,30.07,30.00,1,0,0,0.00
2013-5-31,86,74,55,66,60,53,100,67,33,30.09,29.94,1,0,0,0.00
2013-6-1,88,75,60,68,62,56,100,67,36,29.97,29.84,1,0,0,0.00
2013-6-2,85,71,61,69,65,61,100,84,49,29.83,29.73,1,0,0,0.00
2013-6-3,74,65,57,65,58,51,100,82,49,29.82,29.75,1,0,0,0.00
2013-6-4,54,48,39,46,41,39,100,80,60,29.95,29.82,1,0,0,0.00
2013-6-5,67,52,37,45,39,34,100,66,30,30.15,30.07,1,0,0,0.00
2013-6-6,67,52,46,47,42,32,91,73,34,30.16,30.12,1,0,0,0.00
2013-6-7,50,49,48,50,49,48,100,100,100,30.04,29.95,1,0,0,0.00
2013-6-8,63,56,50,59,55,50,100,97,81,29.91,29.71,1,0,0,0.00
2013-6-9,69,61,52,57,54,52,100,79,54,30.09,30.00,1,0,0,0.00
2013-6-10,66,58,45,60,54,45,100,88,60,30.18,30.07,0,0,0,0.00
2013-6-11,53,52,51,53,52,51,100,100,100,29.92,29.59,1,0,0,0.00
2013-6-12,52,52,51,52,52,51,100,100,100,29.62,29.59,0,0,0,0.00
2013-6-13,53,53,53,53,53,53,100,100,100,29.73,29.73,0,0,0,0.00
2013-6-14,63,63,63,59,59,59,88,88,88,29.72,29.72,0,0,0,0.00
2013-6-16,65,65,65,51,51,51,61,61,61,29.83,29.83,0,0,0,0.00
2013-6-17,64,64,64,58,58,58,80,80,80,29.84,29.84,0,0,0,0.00
2013-6-18,55,52,48,55,52,48,100,100,100,29.95,29.93,0,0,0,0.00
2013-6-19,65,49,42,49,44,39,100,88,38,30.13,29.94,1,0,0,0.00
2013-6-20,70,51,39,51,44,39,100,82,39,30.23,30.14,1,0,0,0.00
2013-6-22,77,70,65,65,63,60,91,78,66,30.18,30.09,0,0,0,0.00
2013-6-23,81,67,60,69,64,60,100,92,62,30.12,29.97,1,0,0,0.00
2013-6-24,85,70,60,70,65,60,100,86,51,29.99,29.92,1,0,0,0.00
2013-6-25,84,70,59,70,66,59,100,89,62,29.96,29.78,1,0,0,0.00
2013-6-26,65,62,61,65,62,61,100,100,100,29.86,29.78,0,0,0,0.00
2013-6-27,73,66,61,68,65,61,100,96,84,29.84,29.78,1,0,0,0.00
2013-6-28,63,58,56,63,58,56,100,100,100,29.77,29.54,2,1,0,0.00
2013-6-29,74,65,62,69,64,62,100,98,73,29.69,29.54,1,0,0,0.00
2013-6-30,67,64,60,67,64,60,100,100,98,29.94,29.73,0,0,0,0.00
2013-7-1,72,66,63,70,66,63,100,99,92,30.06,29.94,0,0,0,0.00
2013-7-2,71,68,65,71,68,65,100,100,100,30.14,30.05,0,0,0,0.00
2013-7-3,81,67,59,74,66,59,100,97,76,30.19,30.14,1,0,0,0.00
2013-7-4,83,71,64,73,69,64,100,94,70,30.20,30.09,0,0,0,0.00
2013-7-5,86,70,64,73,68,64,100,94,65,30.17,30.05,1,0,0,0.00
2013-7-6,81,71,66,70,68,66,100,92,62,30.09,30.02,1,0,0,0.00
2013-7-7,79,69,61,72,67,61,100,95,66,30.04,29.94,0,0,0,0.00
2013-7-8,70,59,67,70,44,-100,100,100,100,30.04,29.96,0,0,0,0.00
2013-7-9,64,64,63,64,64,63,100,100,100,30.11,30.07,0,0,0,0.00
2013-7-10,68,53,63,68,33,-100,100,80,100,30.00,29.82,0,0,0,0.00
2013-7-11,73,67,64,69,66,64,100,98,84,29.87,29.78,0,0,0,0.00
2013-7-12,67,60,53,65,59,53,100,97,74,30.20,30.04,0,0,0,0.00
2013-7-13,74,62,54,62,57,54,100,88,54,30.31,30.22,0,0,0,0.00
2013-7-14,77,69,63,71,67,63,100,95,79,30.32,30.23,0,0,0,0.00
2013-7-15,75,66,62,71,64,62,100,96,78,30.24,30.14,0,0,0,0.00
2013-7-16,83,69,62,68,64,62,100,87,53,30.20,30.17,1,0,0,0.00
2013-7-17,88,71,61,72,66,61,100,86,50,30.20,30.00,0,0,0,0.00
2013-7-18,69,68,68,69,68,68,100,100,100,30.04,30.00,0,0,0,0.00
2013-7-19,87,72,65,74,69,65,100,92,56,29.91,29.77,1,0,0,0.00
2013-7-20,76,68,63,69,66,63,100,94,74,29.81,29.72,1,0,0,0.00
2013-7-21,75,61,55,62,59,55,100,94,58,29.97,29.83,0,0,0,0.00
2013-7-22,72,62,53,66,61,53,100,96,76,30.03,29.92,0,0,0,0.00
2013-7-23,66,63,61,66,63,61,100,100,99,29.91,29.63,0,0,0,0.00
2013-7-24,67,59,50,67,58,46,100,96,82,29.99,29.63,0,0,0,0.00
2013-7-25,68,53,43,54,48,43,100,85,61,30.09,29.98,0,0,0,0.00
2013-7-26,68,59,55,61,57,55,100,96,70,30.07,30.00,1,0,0,0.00
2013-7-27,70,62,53,63,59,53,100,92,69,30.05,29.98,0,0,0,0.00
2013-7-28,76,70,64,68,65,62,100,85,64,30.01,29.96,1,0,0,0.00
2013-7-29,74,66,57,67,63,57,100,92,68,30.06,29.96,1,0,0,0.00
2013-7-30,71,59,51,57,53,51,100,85,52,30.11,30.06,1,0,0,0.00
2013-7-31,75,65,51,61,55,51,100,75,45,30.11,30.04,1,0,0,0.00
2013-8-1,75,64,61,63,61,59,100,91,57,29.96,29.87,1,0,0,0.00
2013-8-2,73,63,57,63,60,57,100,92,69,29.85,29.81,1,0,0,0.00
2013-8-3,73,57,51,57,54,51,100,92,55,29.84,29.78,1,0,0,0.00
2013-8-4,63,53,48,58,52,48,100,98,77,29.89,29.80,0,0,0,0.00
2013-8-5,68,56,46,52,47,37,100,77,32,30.04,29.89,1,0,0,0.00
2013-8-6,74,60,43,55,49,43,100,74,35,30.13,30.03,1,0,0,0.00
2013-8-7,74,59,49,59,54,49,100,86,48,30.15,30.10,1,0,0,0.00
2013-8-8,63,61,60,63,61,60,100,100,100,30.07,30.02,0,0,0,0.00
2013-8-9,69,67,64,69,67,64,100,100,100,30.00,29.79,0,0,0,0.00
2013-8-10,73,64,51,64,54,46,100,75,40,30.01,29.81,1,0,0,0.00
2013-8-11,74,55,45,56,51,45,100,88,45,30.07,30.01,1,0,0,0.00
2013-8-21,82,65,55,68,61,55,100,87,53,30.16,30.03,1,0,0,0.00
2013-8-22,75,65,56,66,62,56,100,91,66,30.03,29.96,0,0,0,0.00
2013-8-23,72,67,59,59,55,53,100,70,53,30.01,29.92,1,0,0,0.00
2013-8-24,72,60,41,49,45,41,100,62,34,30.29,30.23,1,0,0,0.00
2013-8-25,74,58,43,56,50,43,100,79,49,30.32,30.17,1,0,0,0.00
2013-8-26,60,59,58,60,59,58,100,100,100,30.16,30.01,0,0,0,0.00
2013-8-27,64,64,63,64,64,63,100,100,100,29.88,29.88,0,0,0,0.00
2013-8-28,82,82,82,62,62,62,51,51,51,29.88,29.88,0,0,0,0.00
2013-8-29,68,63,60,64,62,60,100,97,84,30.08,30.04,0,0,0,0.00
2013-8-30,79,71,60,67,64,60,100,78,63,29.96,29.86,1,0,0,0.00
2013-8-31,70,66,63,70,66,63,100,100,100,29.85,29.80,0,0,0,0.00
2013-9-1,74,68,66,69,67,66,100,97,80,29.88,29.81,0,0,0,0.00
2013-9-2,70,68,66,70,68,66,100,100,100,29.86,29.78,0,0,0,0.00
2013-9-3,63,61,60,63,61,60,100,100,100,29.80,29.73,0,0,0,0.00
2013-9-4,72,62,57,60,57,53,100,88,51,29.91,29.82,1,0,0,0.00
2013-9-5,58,55,53,58,55,53,100,100,100,29.93,29.87,0,0,0,0.00
2013-9-6,62,46,34,43,38,34,100,79,43,30.18,30.13,1,0,0,0.00
2013-9-7,67,51,42,56,48,42,100,90,60,30.04,29.90,0,0,0,0.00
2013-9-8,57,54,53,54,51,44,100,91,63,29.84,29.77,1,0,0,0.00
2013-9-9,65,45,33,43,38,33,100,81,36,30.15,30.08,1,0,0,0.00
2013-9-10,65,58,44,65,58,44,100,100,100,30.06,30.00,0,0,0,0.00
2013-9-11,86,77,69,77,73,69,100,89,71,30.05,29.96,1,0,0,0.00
2013-9-12,72,66,63,72,66,63,100,100,100,29.94,29.82,0,0,0,0.00
2013-9-13,62,61,60,62,61,60,100,100,100,29.67,29.64,0,0,0,0.00
2013-9-14,51,50,49,51,50,49,100,98,97,29.90,29.81,0,0,0,0.00
2013-9-15,44,40,37,44,40,37,100,100,100,30.08,30.06,0,0,0,0.00
2013-9-16,50,50,50,50,50,50,100,100,100,30.00,30.00,0,0,0,0.00
2013-11-13,21,21,21,11,11,11,64,64,64,30.08,30.08,0,0,0,0.00
2013-11-15,29,29,29,24,24,24,80,80,80,30.05,30.05,0,0,0,0.00
2013-11-16,32,25,31,30,4,-100,90,72,90,30.22,30.16,0,0,0,0.00
2013-11-18,52,52,52,52,52,52,100,100,100,29.49,29.49,2,2,0,0.00
2013-11-19,31,31,31,15,15,15,52,52,52,29.85,29.85,2,2,0,0.00